createdAt,value
2023-02-11T00:00:50.328Z,18.48
2023-02-11T00:03:17.770Z,8.13
2023-02-11T00:05:45.156Z,23.88
2023-02-11T00:08:16.983Z,21.23
2023-02-11T00:10:46.606Z,18.92
2023-02-11T00:13:14.076Z,14.00
2023-02-11T00:15:41.277Z,24.17
2023-02-11T00:18:15.631Z,19.45
2023-02-11T00:20:43.061Z,17.27
2023-02-11T00:23:10.588Z,13.45
2023-02-11T00:25:42.864Z,14.73
2023-02-11T00:28:10.858Z,20.50
2023-02-11T00:30:38.648Z,20.40
2023-02-11T00:33:05.857Z,15.63
2023-02-11T00:35:33.091Z,18.88
2023-02-11T00:38:01.384Z,13.13
2023-02-11T00:40:28.531Z,17.92
2023-02-11T00:42:55.833Z,21.00
2023-02-11T00:45:23.042Z,14.20
2023-02-11T00:47:50.253Z,20.95
2023-02-11T00:50:18.837Z,13.90
2023-02-11T00:52:47.035Z,18.20
2023-02-11T00:55:15.685Z,15.85
2023-02-11T00:57:42.815Z,12.00
2023-02-11T01:00:12.562Z,16.55
2023-02-11T01:02:39.711Z,19.35
2023-02-11T01:05:09.322Z,12.73
2023-02-11T01:07:36.606Z,24.33
2023-02-11T01:10:04.541Z,18.23
2023-02-11T01:12:36.417Z,18.33
2023-02-11T01:15:05.846Z,20.25
2023-02-11T01:17:38.221Z,16.80
2023-02-11T01:20:06.471Z,17.05
2023-02-11T01:22:34.461Z,24.60
2023-02-11T01:25:04.888Z,17.05
2023-02-11T01:27:32.250Z,19.77
2023-02-11T01:30:01.620Z,11.60
2023-02-11T01:32:28.764Z,23.85
2023-02-11T01:34:55.914Z,18.15
2023-02-11T01:37:23.179Z,17.58
2023-02-11T01:39:50.609Z,26.23
2023-02-11T01:42:24.950Z,16.45
2023-02-11T01:44:53.167Z,17.70
2023-02-11T01:47:21.282Z,15.73
2023-02-11T01:49:50.455Z,13.73
2023-02-11T01:52:23.219Z,23.83
2023-02-11T01:55:15.251Z,18.80
2023-02-11T01:57:43.948Z,10.98
2023-02-11T02:00:16.365Z,12.77
2023-02-11T02:02:50.884Z,23.65
2023-02-11T02:05:27.676Z,15.48
2023-02-11T02:08:07.432Z,28.77
2023-02-11T02:10:35.723Z,27.48
2023-02-11T02:13:03.114Z,11.82
2023-02-11T02:15:32.906Z,15.25
2023-02-11T02:18:00.267Z,24.63
2023-02-11T02:20:40.530Z,20.05
2023-02-11T02:23:17.690Z,23.75
2023-02-11T02:26:02.336Z,10.18
2023-02-11T02:28:59.200Z,16.77
2023-02-11T02:31:30.158Z,20.70
2023-02-11T02:34:03.515Z,24.83
2023-02-11T02:36:37.809Z,15.70
2023-02-11T02:39:09.741Z,22.95
2023-02-11T02:41:38.619Z,22.33
2023-02-11T02:44:06.051Z,28.83
2023-02-11T02:46:34.515Z,30.88
2023-02-11T02:49:01.721Z,16.77
2023-02-11T02:51:28.949Z,17.00
2023-02-11T02:53:56.308Z,25.15
2023-02-11T02:56:50.795Z,19.48
2023-02-11T02:59:39.448Z,18.25
2023-02-11T03:02:11.947Z,20.40
2023-02-11T03:04:51.328Z,19.75
2023-02-11T03:07:25.561Z,32.90
2023-02-11T03:09:59.114Z,32.08
2023-02-11T03:12:34.642Z,30.20
2023-02-11T03:15:06.525Z,19.90
2023-02-11T03:17:35.438Z,17.45
2023-02-11T03:20:04.287Z,20.10
2023-02-11T03:22:37.361Z,16.00
2023-02-11T03:25:05.827Z,25.20
2023-02-11T03:27:54.645Z,27.10
2023-02-11T03:30:27.019Z,20.30
2023-02-11T03:33:20.498Z,29.75
2023-02-11T03:36:17.688Z,11.52
2023-02-11T03:38:47.535Z,24.63
2023-02-11T03:41:16.254Z,24.27
2023-02-11T03:43:45.434Z,23.58
2023-02-11T03:46:15.442Z,24.75
2023-02-11T03:48:46.665Z,22.15
2023-02-11T03:51:14.576Z,28.08
2023-02-11T03:53:43.886Z,23.13
2023-02-11T03:56:13.481Z,25.30
2023-02-11T03:58:49.005Z,28.95
2023-02-11T04:01:16.758Z,22.88
2023-02-11T04:03:45.083Z,29.38
2023-02-11T04:06:12.516Z,26.08
2023-02-11T04:08:39.891Z,26.35
2023-02-11T04:11:07.228Z,34.20
2023-02-11T04:13:34.534Z,28.48
2023-02-11T04:16:02.019Z,31.13
2023-02-11T04:18:29.204Z,33.35
2023-02-11T04:20:58.490Z,37.67
2023-02-11T04:23:25.769Z,26.60
2023-02-11T04:25:53.340Z,31.95
2023-02-11T04:28:20.968Z,25.42
2023-02-11T04:30:49.862Z,24.55
2023-02-11T04:33:17.170Z,24.70
2023-02-11T04:35:44.484Z,33.17
2023-02-11T04:38:11.806Z,22.45
2023-02-11T04:40:39.208Z,17.02
2023-02-11T04:43:08.071Z,25.15
2023-02-11T04:45:35.652Z,31.40
2023-02-11T04:48:04.504Z,25.50
2023-02-11T04:50:31.664Z,31.08
2023-02-11T04:52:59.084Z,25.85
2023-02-11T04:55:28.517Z,31.90
2023-02-11T04:57:56.817Z,30.25
2023-02-11T05:00:25.091Z,18.13
2023-02-11T05:02:52.865Z,31.90
2023-02-11T05:05:22.269Z,34.13
2023-02-11T05:07:51.546Z,16.80
2023-02-11T05:10:20.927Z,31.65
2023-02-11T05:12:56.071Z,36.88
2023-02-11T05:15:23.430Z,20.17
2023-02-11T05:17:50.831Z,32.20
2023-02-11T05:20:19.213Z,30.10
2023-02-11T05:22:46.414Z,42.55
2023-02-11T05:25:15.360Z,34.83
2023-02-11T05:27:42.611Z,44.90
2023-02-11T05:30:10.217Z,32.45
2023-02-11T05:32:37.533Z,39.80
2023-02-11T05:35:04.767Z,34.28
2023-02-11T05:37:32.212Z,34.97
2023-02-11T05:39:59.340Z,37.25
2023-02-11T05:42:28.635Z,38.92
2023-02-11T05:44:55.691Z,35.22
2023-02-11T05:47:25.016Z,34.28
2023-02-11T05:49:53.609Z,44.00
2023-02-11T05:52:21.663Z,42.90
2023-02-11T05:54:48.820Z,38.53
2023-02-11T05:57:16.432Z,46.72
2023-02-11T05:59:43.654Z,33.30
2023-02-11T06:02:11.843Z,32.20
2023-02-11T06:04:39.279Z,49.10
2023-02-11T06:07:08.389Z,37.13
2023-02-11T06:09:35.521Z,39.88
2023-02-11T06:12:02.795Z,46.80
2023-02-11T06:14:29.958Z,37.35
2023-02-11T06:16:58.125Z,38.63
2023-02-11T06:19:25.228Z,29.15
2023-02-11T06:21:52.595Z,44.78
2023-02-11T06:24:38.420Z,43.28
2023-02-11T06:27:08.526Z,48.58
2023-02-11T06:29:35.966Z,45.60
2023-02-11T06:32:03.578Z,45.20
2023-02-11T06:34:30.993Z,45.15
2023-02-11T06:36:58.198Z,43.05
2023-02-11T06:39:25.411Z,55.33
2023-02-11T06:41:52.600Z,48.40
2023-02-11T06:44:19.729Z,45.70
2023-02-11T06:46:47.168Z,43.63
2023-02-11T06:49:14.743Z,42.17
2023-02-11T06:51:43.129Z,39.78
2023-02-11T06:54:11.778Z,60.45
2023-02-11T06:56:42.465Z,49.58
2023-02-11T06:59:09.570Z,41.13
2023-02-11T07:01:36.796Z,56.63
2023-02-11T07:04:03.944Z,54.83
2023-02-11T07:06:31.102Z,53.38
2023-02-11T07:08:58.218Z,52.33
2023-02-11T07:11:28.822Z,53.63
2023-02-11T07:13:57.597Z,64.03
2023-02-11T07:16:26.777Z,49.63
2023-02-11T07:18:54.272Z,55.67
2023-02-11T07:21:22.392Z,54.78
2023-02-11T07:23:49.586Z,54.15
2023-02-11T07:26:18.256Z,55.72
2023-02-11T07:28:46.008Z,48.88
2023-02-11T07:31:15.920Z,53.15
2023-02-11T07:33:43.975Z,49.97
2023-02-11T07:36:17.451Z,53.13
2023-02-11T07:38:44.832Z,57.40
2023-02-11T07:41:13.453Z,66.50
2023-02-11T07:43:41.201Z,46.80
2023-02-11T07:46:09.683Z,46.83
2023-02-11T07:48:38.099Z,56.67
2023-02-11T07:51:13.098Z,49.50
2023-02-11T07:53:40.543Z,53.88
2023-02-11T07:56:09.376Z,40.10
2023-02-11T07:58:36.805Z,43.22
2023-02-11T08:01:08.397Z,55.28
2023-02-11T08:03:36.762Z,56.83
2023-02-11T08:06:14.157Z,57.95
2023-02-11T08:08:41.652Z,46.53
2023-02-11T08:11:16.777Z,47.08
2023-02-11T08:13:44.197Z,58.13
2023-02-11T08:16:18.283Z,55.13
2023-02-11T08:18:46.759Z,53.75
2023-02-11T08:21:15.026Z,75.05
2023-02-11T08:23:43.308Z,68.80
2023-02-11T08:26:12.129Z,78.70
2023-02-11T08:28:40.770Z,77.15
2023-02-11T08:31:33.281Z,50.63
2023-02-11T08:34:02.282Z,63.38
2023-02-11T08:36:30.732Z,54.00
2023-02-11T08:39:17.350Z,53.75
2023-02-11T08:41:45.529Z,60.95
2023-02-11T08:44:14.677Z,63.97
2023-02-11T08:46:48.170Z,62.65
2023-02-11T08:49:15.909Z,48.83
2023-02-11T08:51:43.519Z,58.28
2023-02-11T08:54:11.023Z,43.55
2023-02-11T08:56:39.025Z,49.80
2023-02-11T08:59:07.604Z,42.88
2023-02-11T09:01:35.029Z,42.03
2023-02-11T09:04:02.524Z,54.50
2023-02-11T09:06:30.241Z,57.33
2023-02-11T09:08:58.402Z,40.00
2023-02-11T09:11:31.579Z,44.03
2023-02-11T09:13:59.082Z,38.58
2023-02-11T09:16:27.938Z,38.75
2023-02-11T09:18:57.274Z,40.83
2023-02-11T09:21:24.856Z,41.95
2023-02-11T09:23:54.526Z,36.10
2023-02-11T09:26:23.646Z,44.10
2023-02-11T09:28:51.946Z,40.05
2023-02-11T09:31:21.358Z,47.45
2023-02-11T09:33:50.639Z,43.97
2023-02-11T09:36:19.038Z,50.90
2023-02-11T09:38:46.679Z,39.53
2023-02-11T09:41:32.368Z,47.30
2023-02-11T09:44:02.837Z,45.25
2023-02-11T09:46:38.369Z,51.13
2023-02-11T09:49:06.161Z,45.22
2023-02-11T09:51:54.266Z,40.63
2023-02-11T09:54:26.415Z,46.90
2023-02-11T09:56:54.703Z,40.95
2023-02-11T09:59:22.602Z,44.63
2023-02-11T10:02:14.301Z,47.55
2023-02-11T10:04:46.655Z,39.97
2023-02-11T10:07:16.803Z,41.25
2023-02-11T10:10:01.779Z,39.50
2023-02-11T10:12:43.094Z,39.08
2023-02-11T10:15:16.270Z,34.80
2023-02-11T10:17:44.085Z,46.13
2023-02-11T10:20:32.791Z,45.60
2023-02-11T10:23:03.429Z,44.40
2023-02-11T10:25:39.002Z,34.17
2023-02-11T10:28:14.060Z,42.05
2023-02-11T10:30:45.839Z,43.35
2023-02-11T10:33:33.887Z,40.67
2023-02-11T10:36:04.836Z,39.60
2023-02-11T10:38:33.794Z,30.05
2023-02-11T10:41:01.121Z,45.85
2023-02-11T10:43:29.968Z,42.08
2023-02-11T10:45:57.641Z,25.92
2023-02-11T10:48:43.263Z,35.63
2023-02-11T10:51:26.704Z,29.35
2023-02-11T10:54:08.220Z,30.88
2023-02-11T10:56:37.117Z,36.83
2023-02-11T10:59:06.920Z,43.28
2023-02-11T11:01:51.630Z,20.50
2023-02-11T11:04:43.068Z,40.65
2023-02-11T11:07:18.811Z,37.70
2023-02-11T11:09:48.279Z,34.95
2023-02-11T11:12:35.139Z,32.50
2023-02-11T11:15:14.210Z,36.53
2023-02-11T11:17:50.339Z,37.25
2023-02-11T11:20:17.547Z,38.70
2023-02-11T11:22:45.519Z,21.17
2023-02-11T11:25:24.896Z,35.30
2023-02-11T11:27:55.037Z,29.98
2023-02-11T11:30:23.626Z,36.55
2023-02-11T11:32:50.886Z,38.40
2023-02-11T11:35:26.209Z,40.90
2023-02-11T11:37:54.692Z,35.83
2023-02-11T11:40:33.721Z,36.15
2023-02-11T11:43:17.072Z,32.72
2023-02-11T11:45:53.451Z,35.03
2023-02-11T11:48:23.545Z,33.30
2023-02-11T11:50:53.221Z,29.00
2023-02-11T11:53:38.697Z,35.42
2023-02-11T11:56:20.827Z,36.50
2023-02-11T11:58:48.429Z,43.00
2023-02-11T12:01:21.199Z,31.40
2023-02-11T12:04:13.944Z,31.75
2023-02-11T12:06:44.175Z,34.03
2023-02-11T12:09:21.096Z,28.13
2023-02-11T12:12:08.222Z,31.02
2023-02-11T12:14:50.411Z,27.50
2023-02-11T12:17:30.638Z,30.30
2023-02-11T12:20:09.059Z,31.45
2023-02-11T12:22:36.331Z,32.47
2023-02-11T12:25:19.192Z,53.45
2023-02-11T12:27:58.639Z,62.95
2023-02-11T12:30:44.439Z,37.53
2023-02-11T12:33:14.420Z,102.55
2023-02-11T12:35:55.158Z,35.60
2023-02-11T12:38:35.569Z,42.20
2023-02-11T12:41:03.114Z,28.33
2023-02-11T12:43:40.764Z,43.55
2023-02-11T12:46:15.717Z,59.25
2023-02-11T12:49:21.508Z,24.58
2023-02-11T12:51:57.867Z,32.55
2023-02-11T12:54:29.473Z,29.88
2023-02-11T12:56:56.612Z,32.85
2023-02-11T12:59:32.904Z,30.27
2023-02-11T13:02:02.051Z,35.50
2023-02-11T13:04:34.016Z,43.30
2023-02-11T13:07:05.510Z,36.40
2023-02-11T13:09:36.822Z,32.60
2023-02-11T13:14:52.860Z,30.45
2023-02-11T13:17:27.607Z,30.27
2023-02-11T13:20:00.424Z,32.75
2023-02-11T13:22:32.511Z,28.65
2023-02-11T13:25:19.491Z,25.63
2023-02-11T13:28:04.082Z,27.10
2023-02-11T13:30:35.096Z,24.35
2023-02-11T13:33:02.304Z,31.70
2023-02-11T13:35:33.550Z,23.52
2023-02-11T13:40:34.640Z,26.42
2023-02-11T13:43:03.078Z,25.70
2023-02-11T13:45:51.211Z,30.35
2023-02-11T13:48:22.949Z,24.88
2023-02-11T13:50:51.473Z,26.17
2023-02-11T13:53:19.117Z,25.27
2023-02-11T13:55:47.687Z,33.10
2023-02-11T13:58:15.051Z,26.23
2023-02-11T14:00:50.479Z,28.17
2023-02-11T14:03:39.646Z,25.50
2023-02-11T14:06:33.218Z,26.67
2023-02-11T14:09:09.712Z,32.75
2023-02-11T14:11:48.093Z,31.52
2023-02-11T14:14:18.496Z,26.65
2023-02-11T14:17:01.142Z,21.70
2023-02-11T14:19:35.742Z,26.73
2023-02-11T14:22:04.152Z,27.02
2023-02-11T14:24:34.882Z,25.23
2023-02-11T14:27:20.919Z,22.65
2023-02-11T14:30:03.638Z,31.88
2023-02-11T14:32:39.171Z,34.63
2023-02-11T14:35:15.260Z,28.27
2023-02-11T14:37:54.600Z,29.85
2023-02-11T14:40:24.554Z,23.73
2023-02-11T14:42:54.738Z,25.85
2023-02-11T14:45:25.292Z,37.67
2023-02-11T14:47:56.090Z,26.63
2023-02-11T14:50:26.360Z,24.20
2023-02-11T14:52:55.362Z,21.38
2023-02-11T14:55:25.324Z,25.67
2023-02-11T14:58:05.683Z,27.83
2023-02-11T15:00:35.463Z,25.92
2023-02-11T15:03:02.867Z,29.20
2023-02-11T15:05:30.199Z,25.45
2023-02-11T15:08:02.504Z,23.92
2023-02-11T15:10:37.508Z,25.75
2023-02-11T15:13:05.571Z,22.33
2023-02-11T15:15:33.405Z,27.85
2023-02-11T15:18:04.090Z,24.67
2023-02-11T15:20:33.455Z,22.13
2023-02-11T15:23:01.982Z,26.38
2023-02-11T15:25:30.729Z,21.30
2023-02-11T15:27:58.996Z,27.65
2023-02-11T15:30:29.057Z,27.13
2023-02-11T15:33:00.765Z,24.65
2023-02-11T15:35:30.028Z,18.95
2023-02-11T15:37:58.233Z,23.27
2023-02-11T15:40:27.925Z,23.20
2023-02-11T15:43:02.938Z,22.13
2023-02-11T15:45:35.267Z,24.60
2023-02-11T15:50:32.327Z,17.52
2023-02-11T15:53:03.648Z,19.48
2023-02-11T15:58:00.895Z,16.42
2023-02-11T16:00:51.732Z,17.77
2023-02-11T16:03:21.558Z,28.38
2023-02-11T16:05:50.557Z,17.83
2023-02-11T16:08:29.876Z,20.30
2023-02-11T16:10:59.186Z,26.00
2023-02-11T16:13:28.346Z,27.90
2023-02-11T16:16:00.959Z,22.00
2023-02-11T16:18:38.202Z,32.38
2023-02-11T16:21:07.249Z,26.58
2023-02-11T16:23:38.614Z,24.08
2023-02-11T16:28:37.182Z,23.00
2023-02-11T16:31:10.698Z,27.65
2023-02-11T16:33:38.003Z,21.45
2023-02-11T16:36:17.385Z,22.48
2023-02-11T16:38:49.427Z,25.17
2023-02-11T16:41:16.598Z,15.13
2023-02-11T16:43:43.909Z,21.20
2023-02-11T16:46:15.207Z,23.45
2023-02-11T16:48:46.340Z,21.70
2023-02-11T16:51:15.578Z,21.55
2023-02-11T16:53:47.865Z,21.48
2023-02-11T16:56:18.088Z,20.95
2023-02-11T16:58:46.618Z,18.10
2023-02-11T17:01:19.825Z,20.52
2023-02-11T17:03:47.142Z,20.13
2023-02-11T17:06:14.259Z,20.40
2023-02-11T17:08:43.134Z,20.08
2023-02-11T17:11:11.849Z,20.05
2023-02-11T17:13:41.097Z,19.00
2023-02-11T17:16:16.603Z,16.13
2023-02-11T17:18:43.864Z,18.30
2023-02-11T17:21:11.169Z,15.75
2023-02-11T17:23:38.675Z,19.70
2023-02-11T17:26:06.180Z,22.75
2023-02-11T17:28:34.913Z,13.75
2023-02-11T17:31:07.185Z,18.52
2023-02-11T17:33:36.200Z,19.55
2023-02-11T17:36:08.708Z,20.13
2023-02-11T17:38:36.790Z,17.20
2023-02-11T17:41:05.113Z,14.75
2023-02-11T17:43:32.777Z,13.93
2023-02-11T17:46:01.921Z,15.93
2023-02-11T17:48:29.348Z,14.93
2023-02-11T17:50:56.758Z,14.40
2023-02-11T17:53:24.258Z,13.75
2023-02-11T17:55:55.607Z,13.50
2023-02-11T18:00:52.122Z,16.67
2023-02-11T18:03:19.219Z,13.77
2023-02-11T18:05:47.633Z,13.73
2023-02-11T18:08:14.771Z,14.70
2023-02-11T18:10:43.122Z,12.85
2023-02-11T18:13:16.470Z,13.13
2023-02-11T18:15:47.007Z,14.25
2023-02-11T18:18:14.905Z,10.68
2023-02-11T18:20:44.355Z,12.13
2023-02-11T18:23:13.241Z,20.98
2023-02-11T18:25:45.038Z,13.30
2023-02-11T18:28:12.637Z,15.25
2023-02-11T18:30:39.921Z,12.55
2023-02-11T18:33:12.075Z,14.20
2023-02-11T18:35:40.014Z,14.00
2023-02-11T18:38:07.429Z,13.65
2023-02-11T18:40:35.946Z,13.50
2023-02-11T18:43:03.343Z,16.40
2023-02-11T18:45:31.311Z,14.85
2023-02-11T18:48:01.527Z,13.02
2023-02-11T18:50:28.733Z,10.90
2023-02-11T18:52:56.165Z,12.73
2023-02-11T18:55:25.918Z,11.10
2023-02-11T18:57:53.454Z,10.20
2023-02-11T19:00:22.086Z,11.32
2023-02-11T19:02:53.152Z,15.43
2023-02-11T19:05:21.712Z,17.05
2023-02-11T19:07:50.248Z,16.05
2023-02-11T19:10:17.493Z,12.15
2023-02-11T19:12:44.882Z,14.65
2023-02-11T19:15:14.826Z,9.85
2023-02-11T19:17:43.216Z,11.02
2023-02-11T19:20:12.511Z,11.63
2023-02-11T19:22:40.711Z,12.48
2023-02-11T19:25:07.953Z,10.15
2023-02-11T19:27:35.531Z,12.73
2023-02-11T19:30:04.296Z,12.85
2023-02-11T19:32:33.720Z,13.95
2023-02-11T19:35:01.984Z,16.67
2023-02-11T19:37:29.368Z,13.68
2023-02-11T19:39:56.631Z,12.30
2023-02-11T19:42:27.134Z,10.98
2023-02-11T19:44:54.778Z,14.00
2023-02-11T19:47:27.621Z,10.68
2023-02-11T19:49:57.707Z,14.20
2023-02-11T19:52:25.080Z,15.25
2023-02-11T19:54:52.352Z,11.93
2023-02-11T19:57:19.588Z,13.20
2023-02-11T19:59:46.938Z,16.98
2023-02-11T20:02:14.290Z,17.42
2023-02-11T20:04:46.263Z,15.10
2023-02-11T20:07:14.351Z,15.25
2023-02-11T20:09:42.541Z,18.00
2023-02-11T20:12:12.056Z,12.50
2023-02-11T20:14:40.331Z,15.38
2023-02-11T20:17:07.578Z,15.02
2023-02-11T20:19:34.974Z,12.95
2023-02-11T20:22:03.327Z,14.98
2023-02-11T20:24:31.748Z,13.07
2023-02-11T20:26:58.896Z,11.75
2023-02-11T20:29:31.129Z,14.35
2023-02-11T20:31:58.450Z,9.38
2023-02-11T20:34:26.159Z,9.88
2023-02-11T20:36:54.151Z,14.13
2023-02-11T20:39:22.388Z,10.57
2023-02-11T20:41:50.447Z,13.70
2023-02-11T20:44:19.408Z,14.93
2023-02-11T20:46:47.120Z,10.13
2023-02-11T20:49:22.023Z,25.85
2023-02-11T20:51:50.049Z,17.30
2023-02-11T20:54:18.712Z,16.25
2023-02-11T20:56:48.220Z,13.75
2023-02-11T20:59:16.848Z,14.68
2023-02-11T21:01:48.325Z,17.58
2023-02-11T21:04:19.587Z,16.08
2023-02-11T21:06:48.309Z,12.55
2023-02-11T21:09:19.604Z,12.50
2023-02-11T21:14:17.950Z,12.75
2023-02-11T21:16:45.220Z,11.80
2023-02-11T21:19:14.861Z,11.98
2023-02-11T21:21:42.515Z,13.95
2023-02-11T21:24:10.547Z,9.70
2023-02-11T21:26:38.313Z,10.95
2023-02-11T21:29:06.199Z,9.80
2023-02-11T21:31:34.515Z,16.67
2023-02-11T21:34:02.050Z,13.27
2023-02-11T21:36:30.303Z,11.45
2023-02-11T21:38:57.512Z,11.60
2023-02-11T21:41:25.018Z,9.32
2023-02-11T21:43:52.800Z,12.38
2023-02-11T21:46:20.792Z,10.13
2023-02-11T21:48:48.401Z,9.32
2023-02-11T21:51:17.921Z,14.25
2023-02-11T21:53:45.471Z,11.18
2023-02-11T21:56:14.089Z,13.15
2023-02-11T21:58:41.452Z,13.82
2023-02-11T22:01:18.985Z,14.95
2023-02-11T22:03:46.290Z,11.35
2023-02-11T22:06:14.509Z,10.90
2023-02-11T22:08:42.859Z,12.68
2023-02-11T22:11:11.308Z,12.32
2023-02-11T22:13:38.782Z,10.02
2023-02-11T22:16:07.901Z,10.88
2023-02-11T22:18:35.116Z,10.13
2023-02-11T22:21:03.482Z,17.30
2023-02-11T22:23:36.127Z,15.35
2023-02-11T22:26:07.544Z,13.30
2023-02-11T22:28:39.005Z,11.75
2023-02-11T22:31:12.642Z,15.05
2023-02-11T22:33:40.180Z,9.32
2023-02-11T22:36:08.949Z,9.82
2023-02-11T22:38:36.365Z,12.63
2023-02-11T22:41:07.363Z,10.60
2023-02-11T22:43:34.738Z,10.43
2023-02-11T22:46:02.663Z,12.32
2023-02-11T22:48:30.044Z,7.85
2023-02-11T22:50:57.498Z,21.08
2023-02-11T22:53:25.742Z,22.67
2023-02-11T22:55:54.313Z,16.40
2023-02-11T22:58:21.839Z,10.93
2023-02-11T23:00:49.003Z,11.45
2023-02-11T23:03:16.358Z,10.50
2023-02-11T23:05:43.790Z,9.93
2023-02-11T23:08:11.774Z,13.63
2023-02-11T23:10:41.080Z,10.68
2023-02-11T23:13:14.334Z,9.20
2023-02-11T23:15:41.906Z,12.07
2023-02-11T23:18:10.767Z,11.20
2023-02-11T23:20:41.145Z,9.32
2023-02-11T23:23:08.320Z,12.90
2023-02-11T23:25:35.763Z,8.93
2023-02-11T23:28:03.051Z,12.02
2023-02-11T23:30:30.377Z,10.00
2023-02-11T23:32:57.445Z,12.68
2023-02-11T23:35:25.841Z,10.27
2023-02-11T23:37:53.583Z,12.00
2023-02-11T23:40:27.632Z,9.73
2023-02-11T23:42:55.011Z,8.63
2023-02-11T23:45:22.810Z,10.77
2023-02-11T23:47:50.103Z,12.43
2023-02-11T23:50:17.381Z,10.05
2023-02-11T23:52:44.560Z,11.90
2023-02-11T23:55:11.970Z,11.75
2023-02-11T23:57:39.268Z,12.88
